Lindsay, MT (59339)

1:10 PM MST on February 19, 2017 (GMT -0700)
JBar9 | | Change Station
Active Advisory: Areal Flood Warning

Elev 2759 ft 47.35 °N, 105.44 °W | Updated 13 seconds ago

Partly Cloudy
Partly Cloudy
54.0 °F
Feels Like 54.0 °F
N
6.0
Wind Variable Wind from WNW

Today
High -- | Low -- °F
--% Chance of Precip.
Yesterday
High -- | Low -- °F
Precip. -- in
Pressure 29.48 in
Visibility 10.0 miles
Clouds Clear
Dew Point 39 °F
Humidity 56%
Rainfall 0.00 in
Snow Depth Not available.
6:58 AM 5:31 PM
Last Quarter, 40% visible
METAR KGDV 191956Z AUTO 06003KT 10SM CLR 08/02 A2944 RMK AO2 SLP983 T00830017
Pressure 29.48 in
Visibility 10.0 miles
Clouds Clear
Dew Point 39 °F
Humidity 56%
Rainfall 0.00 in
Snow Depth Not available.
6:58 AM 5:31 PM
Last Quarter, 40% visible
METAR KGDV 191956Z AUTO 06003KT 10SM CLR 08/02 A2944 RMK AO2 SLP983 T00830017

Get Your Daily Forecast Email!

Thanks for signing up!

Be on the lookout for a verification email in your inbox.

You'll start receiving the daily forecast at 8 AM.

×

10-Day Weather Forecast

Almanac

Astronomy

Feb. 19, 2017 Rise Set
Actual Time
Civil Twilight
Nautical Twilight
Astronomical Twilight
Moon
Length of Visible Light
Length of Day
Tomorrow will be .
, % of the Moon is Illuminated

Today's Extremes

State Highs State Lows

Community

WunderPhotos

Upload Photos

1,962,540 photos uploaded!

WunderBlog® & News

Nearby

Air Quality

  Air Quality AQ Index Pollutant
Not available.

Snow Depth

Station Depth Elevation

Earthquake Activity

City Distance Mag. Time & Date
Minimum magnitude displayed is 2.5.

Coastal Water Temperatures

Place Temperature

Stations

Nearby Weather Stations

Station Location Temp. Windchill Dew Point Humidity Wind Precip. Elev Updated Type
                   

Watches & Warnings

Areal Flood Warning
Issued: 11:31 AM MST Feb. 19, 2017 – National Weather Service

The National Weather Service in Glasgow has issued a

* Flood Warning for...
an ice jam in...
southeastern Dawson County in northeastern Montana...

* until 1130 am MST Monday

* at 1126 am MST, the Yellowstone river gauge at Glendive indicated
ice jam flooding.

* Some locations that will experience flooding include...
Glendive and west Glendive.

Flood waters are moving down the Yellowstone river from Terry to
Glendive. Current level is 54.19 feet, but sudden and drastic
changes in the river level are expected with ice jams for at least
the next 24 hours. Toepke park on the east side of the river begins
to flood at 54 feet.

Precautionary/preparedness actions...

Turn around, don't drown when encountering flooded roads. Most flood
deaths occur in vehicles.

Please report flooding to your local law enforcement agency when you
can do so safely.

A Flood Warning means that flooding is imminent or occurring. All
interested parties should take necessary precautions immediately.


Lat... Lon 4713 10472 4711 10470 4707 10474 4703 10475
      4704 10479 4709 10477 4711 10475


Mickelson